sensor_id;sensor_type;location;lat;lon;timestamp;temperature;humidity
20726;DHT22;10524;48.132;8.518;2023-09-08T00:00:58;13.90;99.90
20726;DHT22;10524;48.132;8.518;2023-09-08T00:03:24;13.90;99.90
20726;DHT22;10524;48.132;8.518;2023-09-08T00:05:50;13.90;99.90
20726;DHT22;10524;48.132;8.518;2023-09-08T00:08:15;13.80;99.90
20726;DHT22;10524;48.132;8.518;2023-09-08T00:10:42;13.70;99.90
20726;DHT22;10524;48.132;8.518;2023-09-08T00:13:07;13.70;99.90
20726;DHT22;10524;48.132;8.518;2023-09-08T00:15:34;13.60;99.90
20726;DHT22;10524;48.132;8.518;2023-09-08T00:18:00;13.50;99.90
20726;DHT22;10524;48.132;8.518;2023-09-08T00:20:26;13.50;99.90
20726;DHT22;10524;48.132;8.518;2023-09-08T00:22:52;13.50;99.90
20726;DHT22;10524;48.132;8.518;2023-09-08T00:25:18;13.50;99.90
20726;DHT22;10524;48.132;8.518;2023-09-08T00:27:44;13.40;99.90
20726;DHT22;10524;48.132;8.518;2023-09-08T00:30:10;13.40;99.90
20726;DHT22;10524;48.132;8.518;2023-09-08T00:32:36;13.30;99.90
20726;DHT22;10524;48.132;8.518;2023-09-08T00:35:01;13.30;99.90
20726;DHT22;10524;48.132;8.518;2023-09-08T00:37:27;13.30;99.90
20726;DHT22;10524;48.132;8.518;2023-09-08T00:39:53;13.30;99.90
20726;DHT22;10524;48.132;8.518;2023-09-08T00:42:19;13.30;99.90
20726;DHT22;10524;48.132;8.518;2023-09-08T00:44:45;13.40;99.90
20726;DHT22;10524;48.132;8.518;2023-09-08T00:47:11;13.30;99.90
20726;DHT22;10524;48.132;8.518;2023-09-08T00:49:37;13.40;99.90
20726;DHT22;10524;48.132;8.518;2023-09-08T00:52:03;13.50;99.90
20726;DHT22;10524;48.132;8.518;2023-09-08T00:54:29;13.50;99.90
20726;DHT22;10524;48.132;8.518;2023-09-08T00:56:56;13.40;99.90
20726;DHT22;10524;48.132;8.518;2023-09-08T00:59:25;13.50;99.90
20726;DHT22;10524;48.132;8.518;2023-09-08T01:01:52;13.40;99.90
20726;DHT22;10524;48.132;8.518;2023-09-08T01:04:18;13.30;99.90
20726;DHT22;10524;48.132;8.518;2023-09-08T01:06:44;13.20;99.90
20726;DHT22;10524;48.132;8.518;2023-09-08T01:09:11;13.10;99.90
20726;DHT22;10524;48.132;8.518;2023-09-08T01:11:37;13.00;99.90
20726;DHT22;10524;48.132;8.518;2023-09-08T01:14:03;12.90;99.90
20726;DHT22;10524;48.132;8.518;2023-09-08T01:16:28;12.80;99.90
20726;DHT22;10524;48.132;8.518;2023-09-08T01:18:55;12.90;99.90
20726;DHT22;10524;48.132;8.518;2023-09-08T01:21:58;13.00;99.90
20726;DHT22;10524;48.132;8.518;2023-09-08T01:27:18;13.00;99.90
20726;DHT22;10524;48.132;8.518;2023-09-08T01:29:45;12.80;99.90
20726;DHT22;10524;48.132;8.518;2023-09-08T01:32:13;12.80;99.90
20726;DHT22;10524;48.132;8.518;2023-09-08T01:34:38;12.80;99.90
20726;DHT22;10524;48.132;8.518;2023-09-08T01:37:07;12.80;99.90
20726;DHT22;10524;48.132;8.518;2023-09-08T01:39:33;12.70;99.90
20726;DHT22;10524;48.132;8.518;2023-09-08T01:41:59;12.70;99.90
20726;DHT22;10524;48.132;8.518;2023-09-08T01:44:25;12.60;99.90
20726;DHT22;10524;48.132;8.518;2023-09-08T01:46:51;12.50;99.90
20726;DHT22;10524;48.132;8.518;2023-09-08T01:49:22;12.50;99.90
20726;DHT22;10524;48.132;8.518;2023-09-08T01:51:48;12.40;99.90
20726;DHT22;10524;48.132;8.518;2023-09-08T01:54:14;12.50;99.90
20726;DHT22;10524;48.132;8.518;2023-09-08T01:56:40;12.50;99.90
20726;DHT22;10524;48.132;8.518;2023-09-08T01:59:06;12.60;99.90
20726;DHT22;10524;48.132;8.518;2023-09-08T02:01:32;12.60;99.90
20726;DHT22;10524;48.132;8.518;2023-09-08T02:03:59;12.70;99.90
20726;DHT22;10524;48.132;8.518;2023-09-08T02:06:24;12.70;99.90
20726;DHT22;10524;48.132;8.518;2023-09-08T02:08:52;12.70;99.90
20726;DHT22;10524;48.132;8.518;2023-09-08T02:11:17;12.70;99.90
20726;DHT22;10524;48.132;8.518;2023-09-08T02:13:43;12.70;99.90
20726;DHT22;10524;48.132;8.518;2023-09-08T02:16:15;12.70;99.90
20726;DHT22;10524;48.132;8.518;2023-09-08T02:18:42;12.60;99.90
20726;DHT22;10524;48.132;8.518;2023-09-08T02:21:08;12.60;99.90
20726;DHT22;10524;48.132;8.518;2023-09-08T02:23:34;12.50;99.90
20726;DHT22;10524;48.132;8.518;2023-09-08T02:26:00;12.50;99.90
20726;DHT22;10524;48.132;8.518;2023-09-08T02:28:26;12.60;99.90
20726;DHT22;10524;48.132;8.518;2023-09-08T02:30:54;12.50;99.90
20726;DHT22;10524;48.132;8.518;2023-09-08T02:33:20;12.60;99.90
20726;DHT22;10524;48.132;8.518;2023-09-08T02:35:46;12.50;99.90
20726;DHT22;10524;48.132;8.518;2023-09-08T02:38:12;12.40;99.90
20726;DHT22;10524;48.132;8.518;2023-09-08T02:40:38;12.30;99.90
20726;DHT22;10524;48.132;8.518;2023-09-08T02:43:05;12.40;99.90
20726;DHT22;10524;48.132;8.518;2023-09-08T02:45:31;12.40;99.90
20726;DHT22;10524;48.132;8.518;2023-09-08T02:47:56;12.30;99.90
20726;DHT22;10524;48.132;8.518;2023-09-08T02:50:23;12.30;99.90
20726;DHT22;10524;48.132;8.518;2023-09-08T02:52:49;12.20;99.90
20726;DHT22;10524;48.132;8.518;2023-09-08T02:55:15;12.20;99.90
20726;DHT22;10524;48.132;8.518;2023-09-08T02:57:42;12.20;99.90
20726;DHT22;10524;48.132;8.518;2023-09-08T03:00:08;12.20;99.90
20726;DHT22;10524;48.132;8.518;2023-09-08T03:02:33;12.20;99.90
20726;DHT22;10524;48.132;8.518;2023-09-08T03:05:00;12.10;99.90
20726;DHT22;10524;48.132;8.518;2023-09-08T03:07:29;12.00;99.90
20726;DHT22;10524;48.132;8.518;2023-09-08T03:09:55;12.00;99.90
20726;DHT22;10524;48.132;8.518;2023-09-08T03:12:21;12.10;99.90
20726;DHT22;10524;48.132;8.518;2023-09-08T03:14:47;12.10;99.90
20726;DHT22;10524;48.132;8.518;2023-09-08T03:17:13;12.00;99.90
20726;DHT22;10524;48.132;8.518;2023-09-08T03:19:39;12.00;99.90
20726;DHT22;10524;48.132;8.518;2023-09-08T03:22:06;12.00;99.90
20726;DHT22;10524;48.132;8.518;2023-09-08T03:24:32;12.00;99.90
20726;DHT22;10524;48.132;8.518;2023-09-08T03:26:57;12.00;99.90
20726;DHT22;10524;48.132;8.518;2023-09-08T03:29:24;11.90;99.90
20726;DHT22;10524;48.132;8.518;2023-09-08T03:31:50;12.00;99.90
20726;DHT22;10524;48.132;8.518;2023-09-08T03:34:16;12.00;99.90
20726;DHT22;10524;48.132;8.518;2023-09-08T03:36:46;11.80;99.90
20726;DHT22;10524;48.132;8.518;2023-09-08T03:39:12;11.80;99.90
20726;DHT22;10524;48.132;8.518;2023-09-08T03:41:38;11.80;99.90
20726;DHT22;10524;48.132;8.518;2023-09-08T03:44:04;12.00;99.90
20726;DHT22;10524;48.132;8.518;2023-09-08T03:46:30;12.00;99.90
20726;DHT22;10524;48.132;8.518;2023-09-08T03:48:55;11.90;99.90
20726;DHT22;10524;48.132;8.518;2023-09-08T03:51:29;12.00;99.90
20726;DHT22;10524;48.132;8.518;2023-09-08T03:53:55;11.90;99.90
20726;DHT22;10524;48.132;8.518;2023-09-08T03:56:21;11.80;99.90
20726;DHT22;10524;48.132;8.518;2023-09-08T03:58:47;11.80;99.90
20726;DHT22;10524;48.132;8.518;2023-09-08T04:01:13;11.90;99.90
20726;DHT22;10524;48.132;8.518;2023-09-08T04:03:39;11.90;99.90
20726;DHT22;10524;48.132;8.518;2023-09-08T04:06:04;11.90;99.90
20726;DHT22;10524;48.132;8.518;2023-09-08T04:08:30;11.90;99.90
20726;DHT22;10524;48.132;8.518;2023-09-08T04:10:56;12.00;99.90
20726;DHT22;10524;48.132;8.518;2023-09-08T04:13:22;12.00;99.90
20726;DHT22;10524;48.132;8.518;2023-09-08T04:15:47;12.00;99.90
20726;DHT22;10524;48.132;8.518;2023-09-08T04:18:13;12.10;99.90
20726;DHT22;10524;48.132;8.518;2023-09-08T04:20:39;12.20;99.90
20726;DHT22;10524;48.132;8.518;2023-09-08T04:23:05;12.30;99.90
20726;DHT22;10524;48.132;8.518;2023-09-08T04:25:31;12.20;99.90
20726;DHT22;10524;48.132;8.518;2023-09-08T04:27:57;12.10;99.90
20726;DHT22;10524;48.132;8.518;2023-09-08T04:30:23;12.00;99.90
20726;DHT22;10524;48.132;8.518;2023-09-08T04:32:48;11.80;99.90
20726;DHT22;10524;48.132;8.518;2023-09-08T04:35:14;11.70;99.90
20726;DHT22;10524;48.132;8.518;2023-09-08T04:37:40;11.60;99.90
20726;DHT22;10524;48.132;8.518;2023-09-08T04:40:07;11.50;99.90
20726;DHT22;10524;48.132;8.518;2023-09-08T04:42:37;11.50;99.90
20726;DHT22;10524;48.132;8.518;2023-09-08T04:45:04;11.50;99.90
20726;DHT22;10524;48.132;8.518;2023-09-08T04:47:30;11.60;99.90
20726;DHT22;10524;48.132;8.518;2023-09-08T04:49:56;11.60;99.90
20726;DHT22;10524;48.132;8.518;2023-09-08T04:52:22;11.80;99.90
20726;DHT22;10524;48.132;8.518;2023-09-08T04:54:48;11.90;99.90
20726;DHT22;10524;48.132;8.518;2023-09-08T04:57:14;11.90;99.90
20726;DHT22;10524;48.132;8.518;2023-09-08T04:59:40;12.00;99.90
20726;DHT22;10524;48.132;8.518;2023-09-08T05:02:06;12.00;99.90
20726;DHT22;10524;48.132;8.518;2023-09-08T05:04:32;12.20;99.90
20726;DHT22;10524;48.132;8.518;2023-09-08T05:06:58;12.10;99.90
20726;DHT22;10524;48.132;8.518;2023-09-08T05:09:24;12.10;99.90
20726;DHT22;10524;48.132;8.518;2023-09-08T05:11:51;12.10;99.90
20726;DHT22;10524;48.132;8.518;2023-09-08T05:14:17;12.20;99.90
20726;DHT22;10524;48.132;8.518;2023-09-08T05:16:43;12.40;99.90
20726;DHT22;10524;48.132;8.518;2023-09-08T05:19:18;12.80;99.90
20726;DHT22;10524;48.132;8.518;2023-09-08T05:21:44;13.10;99.90
20726;DHT22;10524;48.132;8.518;2023-09-08T05:24:09;13.50;99.90
20726;DHT22;10524;48.132;8.518;2023-09-08T05:26:37;13.90;99.90
20726;DHT22;10524;48.132;8.518;2023-09-08T05:29:04;14.30;99.90
20726;DHT22;10524;48.132;8.518;2023-09-08T05:31:30;14.90;99.90
20726;DHT22;10524;48.132;8.518;2023-09-08T05:33:56;15.60;99.90
20726;DHT22;10524;48.132;8.518;2023-09-08T05:36:22;16.20;99.90
20726;DHT22;10524;48.132;8.518;2023-09-08T05:38:48;16.70;99.90
20726;DHT22;10524;48.132;8.518;2023-09-08T05:41:14;16.90;99.90
20726;DHT22;10524;48.132;8.518;2023-09-08T05:43:40;17.40;99.90
20726;DHT22;10524;48.132;8.518;2023-09-08T05:46:06;18.10;99.90
20726;DHT22;10524;48.132;8.518;2023-09-08T05:48:32;18.70;99.90
20726;DHT22;10524;48.132;8.518;2023-09-08T05:50:58;19.40;99.90
20726;DHT22;10524;48.132;8.518;2023-09-08T05:53:25;20.30;99.90
20726;DHT22;10524;48.132;8.518;2023-09-08T05:55:51;21.20;99.90
20726;DHT22;10524;48.132;8.518;2023-09-08T05:58:18;21.80;99.90
20726;DHT22;10524;48.132;8.518;2023-09-08T06:00:44;22.10;99.90
20726;DHT22;10524;48.132;8.518;2023-09-08T06:03:09;22.60;99.90
20726;DHT22;10524;48.132;8.518;2023-09-08T06:05:35;23.10;99.90
20726;DHT22;10524;48.132;8.518;2023-09-08T06:08:01;23.70;99.90
20726;DHT22;10524;48.132;8.518;2023-09-08T06:10:28;24.40;99.90
20726;DHT22;10524;48.132;8.518;2023-09-08T06:12:56;25.00;99.90
20726;DHT22;10524;48.132;8.518;2023-09-08T06:15:22;25.60;99.90
20726;DHT22;10524;48.132;8.518;2023-09-08T06:17:48;26.10;99.90
20726;DHT22;10524;48.132;8.518;2023-09-08T06:20:14;26.30;99.90
20726;DHT22;10524;48.132;8.518;2023-09-08T06:22:41;26.20;99.90
20726;DHT22;10524;48.132;8.518;2023-09-08T06:25:08;25.90;99.90
20726;DHT22;10524;48.132;8.518;2023-09-08T06:27:35;25.60;99.90
20726;DHT22;10524;48.132;8.518;2023-09-08T06:30:01;26.10;99.90
20726;DHT22;10524;48.132;8.518;2023-09-08T06:32:29;26.10;99.90
20726;DHT22;10524;48.132;8.518;2023-09-08T06:34:55;26.50;99.90
20726;DHT22;10524;48.132;8.518;2023-09-08T06:37:20;26.70;99.90
20726;DHT22;10524;48.132;8.518;2023-09-08T06:39:46;27.00;99.90
20726;DHT22;10524;48.132;8.518;2023-09-08T06:42:12;27.00;99.90
20726;DHT22;10524;48.132;8.518;2023-09-08T06:44:46;27.00;99.90
20726;DHT22;10524;48.132;8.518;2023-09-08T06:47:12;28.20;99.90
20726;DHT22;10524;48.132;8.518;2023-09-08T06:49:38;29.50;99.90
20726;DHT22;10524;48.132;8.518;2023-09-08T06:52:04;30.70;99.90
20726;DHT22;10524;48.132;8.518;2023-09-08T06:54:30;31.90;99.90
20726;DHT22;10524;48.132;8.518;2023-09-08T06:56:56;32.20;99.90
20726;DHT22;10524;48.132;8.518;2023-09-08T06:59:22;32.60;99.90
20726;DHT22;10524;48.132;8.518;2023-09-08T07:01:47;32.20;99.90
20726;DHT22;10524;48.132;8.518;2023-09-08T07:04:13;31.10;99.90
20726;DHT22;10524;48.132;8.518;2023-09-08T07:06:39;30.80;99.90
20726;DHT22;10524;48.132;8.518;2023-09-08T07:09:07;31.40;99.90
20726;DHT22;10524;48.132;8.518;2023-09-08T07:11:34;32.30;99.90
20726;DHT22;10524;48.132;8.518;2023-09-08T07:14:00;31.50;99.90
20726;DHT22;10524;48.132;8.518;2023-09-08T07:16:25;31.10;99.90
20726;DHT22;10524;48.132;8.518;2023-09-08T07:18:51;31.70;99.90
20726;DHT22;10524;48.132;8.518;2023-09-08T07:21:17;31.90;99.90
20726;DHT22;10524;48.132;8.518;2023-09-08T07:23:42;31.10;99.90
20726;DHT22;10524;48.132;8.518;2023-09-08T07:26:11;31.20;99.90
20726;DHT22;10524;48.132;8.518;2023-09-08T07:28:38;32.00;99.90
20726;DHT22;10524;48.132;8.518;2023-09-08T07:31:08;32.40;99.90
20726;DHT22;10524;48.132;8.518;2023-09-08T07:33:38;33.00;99.90
20726;DHT22;10524;48.132;8.518;2023-09-08T07:36:05;33.40;99.90
20726;DHT22;10524;48.132;8.518;2023-09-08T07:38:31;33.60;99.90
20726;DHT22;10524;48.132;8.518;2023-09-08T07:40:58;34.90;99.90
20726;DHT22;10524;48.132;8.518;2023-09-08T07:43:27;36.00;99.90
20726;DHT22;10524;48.132;8.518;2023-09-08T07:45:53;36.00;99.90
20726;DHT22;10524;48.132;8.518;2023-09-08T07:48:19;34.50;99.90
20726;DHT22;10524;48.132;8.518;2023-09-08T07:50:45;34.20;99.90
20726;DHT22;10524;48.132;8.518;2023-09-08T07:53:10;34.10;99.90
20726;DHT22;10524;48.132;8.518;2023-09-08T07:55:36;34.70;99.90
20726;DHT22;10524;48.132;8.518;2023-09-08T07:58:03;35.00;99.90
20726;DHT22;10524;48.132;8.518;2023-09-08T08:00:31;36.10;99.90
20726;DHT22;10524;48.132;8.518;2023-09-08T08:02:58;36.70;99.90
20726;DHT22;10524;48.132;8.518;2023-09-08T08:05:24;37.20;99.90
20726;DHT22;10524;48.132;8.518;2023-09-08T08:07:51;36.80;99.90
20726;DHT22;10524;48.132;8.518;2023-09-08T08:10:17;35.70;99.90
20726;DHT22;10524;48.132;8.518;2023-09-08T08:12:43;35.40;99.90
20726;DHT22;10524;48.132;8.518;2023-09-08T08:15:10;35.00;99.90
20726;DHT22;10524;48.132;8.518;2023-09-08T08:17:36;35.40;99.90
20726;DHT22;10524;48.132;8.518;2023-09-08T08:20:07;35.10;99.90
20726;DHT22;10524;48.132;8.518;2023-09-08T08:22:37;35.30;99.90
20726;DHT22;10524;48.132;8.518;2023-09-08T08:25:03;36.00;99.90
20726;DHT22;10524;48.132;8.518;2023-09-08T08:27:29;37.20;99.90
20726;DHT22;10524;48.132;8.518;2023-09-08T08:29:57;36.60;99.90
20726;DHT22;10524;48.132;8.518;2023-09-08T08:32:25;37.10;99.90
20726;DHT22;10524;48.132;8.518;2023-09-08T08:34:51;37.80;99.90
20726;DHT22;10524;48.132;8.518;2023-09-08T08:37:17;37.40;99.90
20726;DHT22;10524;48.132;8.518;2023-09-08T08:39:43;36.10;99.90
20726;DHT22;10524;48.132;8.518;2023-09-08T08:42:10;35.00;99.90
20726;DHT22;10524;48.132;8.518;2023-09-08T08:44:38;34.00;99.90
20726;DHT22;10524;48.132;8.518;2023-09-08T08:47:06;34.60;99.90
20726;DHT22;10524;48.132;8.518;2023-09-08T08:49:33;35.80;99.90
20726;DHT22;10524;48.132;8.518;2023-09-08T08:51:59;36.30;99.90
20726;DHT22;10524;48.132;8.518;2023-09-08T08:54:29;36.80;99.90
20726;DHT22;10524;48.132;8.518;2023-09-08T08:56:55;36.30;99.90
20726;DHT22;10524;48.132;8.518;2023-09-08T08:59:21;35.90;99.90
20726;DHT22;10524;48.132;8.518;2023-09-08T09:01:48;35.60;99.90
20726;DHT22;10524;48.132;8.518;2023-09-08T09:04:16;35.00;99.90
20726;DHT22;10524;48.132;8.518;2023-09-08T09:06:42;35.50;99.90
20726;DHT22;10524;48.132;8.518;2023-09-08T09:09:08;34.20;99.90
20726;DHT22;10524;48.132;8.518;2023-09-08T09:11:36;32.90;99.90
20726;DHT22;10524;48.132;8.518;2023-09-08T09:14:01;33.90;99.90
20726;DHT22;10524;48.132;8.518;2023-09-08T09:16:28;35.10;99.90
20726;DHT22;10524;48.132;8.518;2023-09-08T09:18:54;37.10;99.90
20726;DHT22;10524;48.132;8.518;2023-09-08T09:21:21;38.60;99.90
20726;DHT22;10524;48.132;8.518;2023-09-08T09:23:46;37.80;99.90
20726;DHT22;10524;48.132;8.518;2023-09-08T09:26:26;37.30;99.90
20726;DHT22;10524;48.132;8.518;2023-09-08T09:28:52;38.00;99.90
20726;DHT22;10524;48.132;8.518;2023-09-08T09:31:23;39.40;99.90
20726;DHT22;10524;48.132;8.518;2023-09-08T09:34:02;39.70;99.90
20726;DHT22;10524;48.132;8.518;2023-09-08T09:36:31;40.40;99.90
20726;DHT22;10524;48.132;8.518;2023-09-08T09:39:00;41.10;99.90
20726;DHT22;10524;48.132;8.518;2023-09-08T09:41:28;41.60;99.60
20726;DHT22;10524;48.132;8.518;2023-09-08T09:43:56;41.30;99.20
20726;DHT22;10524;48.132;8.518;2023-09-08T09:46:21;40.50;99.90
20726;DHT22;10524;48.132;8.518;2023-09-08T09:48:51;40.10;99.90
20726;DHT22;10524;48.132;8.518;2023-09-08T09:51:19;40.50;99.90
20726;DHT22;10524;48.132;8.518;2023-09-08T09:53:45;41.80;99.10
20726;DHT22;10524;48.132;8.518;2023-09-08T09:56:11;42.90;98.20
20726;DHT22;10524;48.132;8.518;2023-09-08T09:58:37;43.40;97.80
20726;DHT22;10524;48.132;8.518;2023-09-08T10:01:04;43.40;97.60
20726;DHT22;10524;48.132;8.518;2023-09-08T10:03:31;41.70;98.70
20726;DHT22;10524;48.132;8.518;2023-09-08T10:05:59;41.10;98.80
20726;DHT22;10524;48.132;8.518;2023-09-08T10:08:25;41.10;98.30
20726;DHT22;10524;48.132;8.518;2023-09-08T10:10:51;42.40;97.80
20726;DHT22;10524;48.132;8.518;2023-09-08T10:13:23;43.80;96.70
20726;DHT22;10524;48.132;8.518;2023-09-08T10:15:53;42.90;96.70
20726;DHT22;10524;48.132;8.518;2023-09-08T10:18:23;43.20;96.40
20726;DHT22;10524;48.132;8.518;2023-09-08T10:20:51;42.80;96.20
20726;DHT22;10524;48.132;8.518;2023-09-08T10:25:53;41.80;96.80
20726;DHT22;10524;48.132;8.518;2023-09-08T10:28:22;42.60;96.60
20726;DHT22;10524;48.132;8.518;2023-09-08T10:30:49;42.80;96.20
20726;DHT22;10524;48.132;8.518;2023-09-08T10:33:15;43.70;96.30
20726;DHT22;10524;48.132;8.518;2023-09-08T10:35:42;43.90;95.60
20726;DHT22;10524;48.132;8.518;2023-09-08T10:38:28;44.30;95.20
20726;DHT22;10524;48.132;8.518;2023-09-08T10:43:43;44.80;94.40
20726;DHT22;10524;48.132;8.518;2023-09-08T10:46:10;45.10;93.90
20726;DHT22;10524;48.132;8.518;2023-09-08T10:48:44;44.50;93.80
20726;DHT22;10524;48.132;8.518;2023-09-08T10:51:14;43.50;94.50
20726;DHT22;10524;48.132;8.518;2023-09-08T10:53:40;43.30;94.50
20726;DHT22;10524;48.132;8.518;2023-09-08T10:56:06;43.00;94.50
20726;DHT22;10524;48.132;8.518;2023-09-08T10:58:33;43.50;93.90
20726;DHT22;10524;48.132;8.518;2023-09-08T11:01:02;44.30;93.50
20726;DHT22;10524;48.132;8.518;2023-09-08T11:06:08;44.60;93.00
20726;DHT22;10524;48.132;8.518;2023-09-08T11:08:37;44.50;92.90
20726;DHT22;10524;48.132;8.518;2023-09-08T11:11:03;43.70;93.20
20726;DHT22;10524;48.132;8.518;2023-09-08T11:13:28;41.90;94.20
20726;DHT22;10524;48.132;8.518;2023-09-08T11:15:55;40.70;95.50
20726;DHT22;10524;48.132;8.518;2023-09-08T11:18:28;40.80;95.00
20726;DHT22;10524;48.132;8.518;2023-09-08T11:20:54;41.30;94.50
20726;DHT22;10524;48.132;8.518;2023-09-08T11:23:21;41.90;94.60
20726;DHT22;10524;48.132;8.518;2023-09-08T11:25:47;43.00;94.30
20726;DHT22;10524;48.132;8.518;2023-09-08T11:28:15;43.00;93.50
20726;DHT22;10524;48.132;8.518;2023-09-08T11:30:41;41.70;94.00
20726;DHT22;10524;48.132;8.518;2023-09-08T11:33:16;41.40;95.00
20726;DHT22;10524;48.132;8.518;2023-09-08T11:35:43;40.90;94.90
20726;DHT22;10524;48.132;8.518;2023-09-08T11:38:11;40.90;94.90
20726;DHT22;10524;48.132;8.518;2023-09-08T11:40:37;39.60;95.40
20726;DHT22;10524;48.132;8.518;2023-09-08T11:43:04;37.50;96.50
20726;DHT22;10524;48.132;8.518;2023-09-08T11:45:33;38.90;96.60
20726;DHT22;10524;48.132;8.518;2023-09-08T11:47:59;39.20;96.60
20726;DHT22;10524;48.132;8.518;2023-09-08T11:50:25;40.30;95.90
20726;DHT22;10524;48.132;8.518;2023-09-08T11:52:53;40.20;94.90
20726;DHT22;10524;48.132;8.518;2023-09-08T11:55:21;41.20;95.00
20726;DHT22;10524;48.132;8.518;2023-09-08T11:57:49;42.70;94.30
20726;DHT22;10524;48.132;8.518;2023-09-08T12:00:19;41.90;93.80
20726;DHT22;10524;48.132;8.518;2023-09-08T12:02:46;42.40;93.40
20726;DHT22;10524;48.132;8.518;2023-09-08T12:05:23;42.60;93.30
20726;DHT22;10524;48.132;8.518;2023-09-08T12:07:55;42.80;94.30
20726;DHT22;10524;48.132;8.518;2023-09-08T12:10:25;41.80;93.50
20726;DHT22;10524;48.132;8.518;2023-09-08T12:12:52;40.30;94.90
20726;DHT22;10524;48.132;8.518;2023-09-08T12:15:39;41.70;94.20
20726;DHT22;10524;48.132;8.518;2023-09-08T12:18:06;41.30;94.70
20726;DHT22;10524;48.132;8.518;2023-09-08T12:20:34;40.60;94.90
20726;DHT22;10524;48.132;8.518;2023-09-08T12:23:01;39.60;95.10
20726;DHT22;10524;48.132;8.518;2023-09-08T12:25:27;35.80;97.00
20726;DHT22;10524;48.132;8.518;2023-09-08T12:27:54;33.90;99.00
20726;DHT22;10524;48.132;8.518;2023-09-08T12:30:23;35.70;98.40
20726;DHT22;10524;48.132;8.518;2023-09-08T12:33:05;38.20;97.00
20726;DHT22;10524;48.132;8.518;2023-09-08T12:35:31;39.80;95.40
20726;DHT22;10524;48.132;8.518;2023-09-08T12:38:03;40.30;95.30
20726;DHT22;10524;48.132;8.518;2023-09-08T12:40:32;40.90;94.80
20726;DHT22;10524;48.132;8.518;2023-09-08T12:42:58;38.00;95.50
20726;DHT22;10524;48.132;8.518;2023-09-08T12:45:26;35.20;97.30
20726;DHT22;10524;48.132;8.518;2023-09-08T12:47:53;34.30;98.70
20726;DHT22;10524;48.132;8.518;2023-09-08T12:50:20;35.60;97.60
20726;DHT22;10524;48.132;8.518;2023-09-08T12:52:46;34.50;97.70
20726;DHT22;10524;48.132;8.518;2023-09-08T12:55:12;36.40;97.40
20726;DHT22;10524;48.132;8.518;2023-09-08T12:57:38;37.40;96.70
20726;DHT22;10524;48.132;8.518;2023-09-08T13:00:04;35.90;97.50
20726;DHT22;10524;48.132;8.518;2023-09-08T13:02:30;37.60;96.60
20726;DHT22;10524;48.132;8.518;2023-09-08T13:04:56;38.30;96.50
20726;DHT22;10524;48.132;8.518;2023-09-08T13:07:23;37.60;96.30
20726;DHT22;10524;48.132;8.518;2023-09-08T13:09:49;39.20;95.80
20726;DHT22;10524;48.132;8.518;2023-09-08T13:12:16;40.30;94.70
20726;DHT22;10524;48.132;8.518;2023-09-08T13:14:42;38.40;95.10
20726;DHT22;10524;48.132;8.518;2023-09-08T13:17:13;36.40;96.70
20726;DHT22;10524;48.132;8.518;2023-09-08T13:19:41;36.70;97.40
20726;DHT22;10524;48.132;8.518;2023-09-08T13:22:07;39.00;96.40
20726;DHT22;10524;48.132;8.518;2023-09-08T13:24:33;40.20;95.30
20726;DHT22;10524;48.132;8.518;2023-09-08T13:27:02;40.80;94.90
20726;DHT22;10524;48.132;8.518;2023-09-08T13:29:28;41.30;94.50
20726;DHT22;10524;48.132;8.518;2023-09-08T13:31:54;40.90;94.50
20726;DHT22;10524;48.132;8.518;2023-09-08T13:34:23;41.40;94.30
20726;DHT22;10524;48.132;8.518;2023-09-08T13:36:49;40.60;94.00
20726;DHT22;10524;48.132;8.518;2023-09-08T13:39:15;40.10;94.30
20726;DHT22;10524;48.132;8.518;2023-09-08T13:41:48;40.80;93.80
20726;DHT22;10524;48.132;8.518;2023-09-08T13:44:19;41.60;93.60
20726;DHT22;10524;48.132;8.518;2023-09-08T13:46:49;41.70;93.10
20726;DHT22;10524;48.132;8.518;2023-09-08T13:49:15;41.10;93.30
20726;DHT22;10524;48.132;8.518;2023-09-08T13:51:42;40.80;93.30
20726;DHT22;10524;48.132;8.518;2023-09-08T13:54:08;38.40;94.60
20726;DHT22;10524;48.132;8.518;2023-09-08T13:56:34;35.40;96.90
20726;DHT22;10524;48.132;8.518;2023-09-08T13:59:01;33.80;98.10
20726;DHT22;10524;48.132;8.518;2023-09-08T14:01:27;34.30;98.80
20726;DHT22;10524;48.132;8.518;2023-09-08T14:03:57;35.80;97.50
20726;DHT22;10524;48.132;8.518;2023-09-08T14:06:23;36.80;96.60
20726;DHT22;10524;48.132;8.518;2023-09-08T14:08:50;38.10;96.00
20726;DHT22;10524;48.132;8.518;2023-09-08T14:11:16;38.20;95.60
20726;DHT22;10524;48.132;8.518;2023-09-08T14:13:42;38.70;95.50
20726;DHT22;10524;48.132;8.518;2023-09-08T14:16:08;37.60;95.20
20726;DHT22;10524;48.132;8.518;2023-09-08T14:18:34;35.30;96.90
20726;DHT22;10524;48.132;8.518;2023-09-08T14:21:00;33.30;98.30
20726;DHT22;10524;48.132;8.518;2023-09-08T14:23:26;32.10;99.10
20726;DHT22;10524;48.132;8.518;2023-09-08T14:25:52;31.60;99.90
20726;DHT22;10524;48.132;8.518;2023-09-08T14:28:18;31.50;99.90
20726;DHT22;10524;48.132;8.518;2023-09-08T14:30:44;31.00;99.90
20726;DHT22;10524;48.132;8.518;2023-09-08T14:33:10;32.60;99.90
20726;DHT22;10524;48.132;8.518;2023-09-08T14:35:35;34.10;99.70
20726;DHT22;10524;48.132;8.518;2023-09-08T14:38:06;35.10;98.90
20726;DHT22;10524;48.132;8.518;2023-09-08T14:40:33;35.50;98.30
20726;DHT22;10524;48.132;8.518;2023-09-08T14:42:59;35.70;98.40
20726;DHT22;10524;48.132;8.518;2023-09-08T14:45:25;35.70;97.90
20726;DHT22;10524;48.132;8.518;2023-09-08T14:47:53;35.80;98.10
20726;DHT22;10524;48.132;8.518;2023-09-08T14:50:19;35.80;98.00
20726;DHT22;10524;48.132;8.518;2023-09-08T14:52:45;35.70;97.70
20726;DHT22;10524;48.132;8.518;2023-09-08T14:55:10;35.70;97.50
20726;DHT22;10524;48.132;8.518;2023-09-08T14:57:36;35.50;98.00
20726;DHT22;10524;48.132;8.518;2023-09-08T15:00:03;35.40;98.10
20726;DHT22;10524;48.132;8.518;2023-09-08T15:02:31;35.60;98.00
20726;DHT22;10524;48.132;8.518;2023-09-08T15:04:56;35.00;98.20
20726;DHT22;10524;48.132;8.518;2023-09-08T15:07:22;34.50;98.40
20726;DHT22;10524;48.132;8.518;2023-09-08T15:09:48;34.40;98.50
20726;DHT22;10524;48.132;8.518;2023-09-08T15:12:15;34.30;98.10
20726;DHT22;10524;48.132;8.518;2023-09-08T15:14:41;34.00;99.10
20726;DHT22;10524;48.132;8.518;2023-09-08T15:17:07;34.20;98.80
20726;DHT22;10524;48.132;8.518;2023-09-08T15:19:33;34.40;98.90
20726;DHT22;10524;48.132;8.518;2023-09-08T15:21:58;34.60;98.60
20726;DHT22;10524;48.132;8.518;2023-09-08T15:24:24;34.70;98.60
20726;DHT22;10524;48.132;8.518;2023-09-08T15:26:50;34.40;98.60
20726;DHT22;10524;48.132;8.518;2023-09-08T15:29:16;34.20;98.70
20726;DHT22;10524;48.132;8.518;2023-09-08T15:31:43;34.00;99.10
20726;DHT22;10524;48.132;8.518;2023-09-08T15:34:08;34.10;98.70
20726;DHT22;10524;48.132;8.518;2023-09-08T15:36:36;34.00;98.70
20726;DHT22;10524;48.132;8.518;2023-09-08T15:39:02;33.60;99.50